Time;durP1;ratioP1;P1;durP2;ratioP2;P2;SDS_P1;SDS_P2;PMS_P1;PMS_P2;Temp;Humidity;BMP_temperature;BMP_pressure;BME280_temperature;BME280_humidity;BME280_pressure;Samples;Min_cycle;Max_cycle;Signal;HPM_P1;HPM_P2
2022/10/11 00:08:47;;;;;;;14.9;18.9;;;;;;;8.1;86.1;99180;;;;
2022/10/11 00:18:47;;;;;;;14.9;18.9;;;;;;;8.2;86.2;99180;;;;
2022/10/11 00:29:47;;;;;;;14.9;18.9;;;;;;;8.4;86.1;99180;;;;
2022/10/11 00:39:48;;;;;;;18;23.9;;;;;;;8.5;86;99180;;;;
2022/10/11 00:50:47;;;;;;;18;23.9;;;;;;;8.7;86.3;99190;;;;
2022/10/11 01:01:48;;;;;;;18;23.9;;;;;;;8.7;86.1;99190;;;;
2022/10/11 01:11:47;;;;;;;18.7;25.9;;;;;;;8.7;85.7;99190;;;;
2022/10/11 01:22:47;;;;;;;18.7;25.9;;;;;;;8.6;85.2;99190;;;;
2022/10/11 01:32:47;;;;;;;16.3;23.3;;;;;;;8.4;84.8;99190;;;;
2022/10/11 01:43:47;;;;;;;16.3;23.3;;;;;;;8.3;84.7;99190;;;;
2022/10/11 01:54:47;;;;;;;16.3;23.3;;;;;;;8.2;84.4;99200;;;;
2022/10/11 02:04:47;;;;;;;14.1;18.2;;;;;;;7.9;84.3;99200;;;;
2022/10/11 02:15:47;;;;;;;14.1;18.2;;;;;;;7.8;84.4;99210;;;;
2022/10/11 02:26:47;;;;;;;14.1;18.2;;;;;;;7.7;84.4;99210;;;;
2022/10/11 02:36:47;;;;;;;13.2;19.6;;;;;;;7.8;84.9;99210;;;;
2022/10/11 02:47:47;;;;;;;13.2;19.6;;;;;;;8;85.5;99210;;;;
2022/10/11 02:58:47;;;;;;;13.2;19.6;;;;;;;8.2;85.9;99220;;;;
2022/10/11 03:08:47;;;;;;;12.2;16.1;;;;;;;8.4;85.9;99230;;;;
2022/10/11 03:18:47;;;;;;;12.2;16.1;;;;;;;8.5;86.1;99230;;;;
2022/10/11 03:29:47;;;;;;;12.2;16.1;;;;;;;8.7;86;99230;;;;
2022/10/11 03:40:47;;;;;;;15;18.4;;;;;;;8.8;85.8;99240;;;;
2022/10/11 03:50:47;;;;;;;15;18.4;;;;;;;8.8;85.4;99240;;;;
2022/10/11 04:01:47;;;;;;;15;18.4;;;;;;;8.8;85.2;99240;;;;
2022/10/11 04:11:47;;;;;;;15.7;19.7;;;;;;;8.8;85;99240;;;;
2022/10/11 04:21:48;;;;;;;15.7;19.7;;;;;;;8.9;84.9;99250;;;;
2022/10/11 04:32:47;;;;;;;19.2;22.1;;;;;;;8.9;84.8;99260;;;;
2022/10/11 04:43:47;;;;;;;19.2;22.1;;;;;;;9;84.7;99260;;;;
2022/10/11 04:53:47;;;;;;;19.2;22.1;;;;;;;9;84.7;99260;;;;
2022/10/11 05:03:47;;;;;;;19.4;23.7;;;;;;;9.2;85.1;99270;;;;
2022/10/11 05:14:47;;;;;;;19.4;23.7;;;;;;;9.3;84.8;99280;;;;
2022/10/11 05:24:48;;;;;;;19.4;23.7;;;;;;;9.4;84.6;99300;;;;
2022/10/11 05:35:47;;;;;;;20.7;26.7;;;;;;;9.5;84.6;99320;;;;
2022/10/11 05:45:47;;;;;;;20.7;26.7;;;;;;;9.8;85.6;99330;;;;
2022/10/11 05:56:47;;;;;;;20.7;26.7;;;;;;;10.3;85.7;99340;;;;
2022/10/11 06:06:47;;;;;;;14.5;19.3;;;;;;;10.7;85;99350;;;;
2022/10/11 06:17:47;;;;;;;14.5;19.3;;;;;;;11.1;83.8;99360;;;;
2022/10/11 06:28:47;;;;;;;14.5;19.3;;;;;;;11.7;82.2;99370;;;;
2022/10/11 06:38:47;;;;;;;12.4;16.1;;;;;;;12.2;81.3;99380;;;;
2022/10/11 06:49:47;;;;;;;12.4;16.1;;;;;;;12.5;79.9;99390;;;;
2022/10/11 06:59:47;;;;;;;12.4;16.1;;;;;;;12.7;78.4;99400;;;;
2022/10/11 07:09:47;;;;;;;10.6;13.5;;;;;;;12.8;77.7;99410;;;;
2022/10/11 07:20:47;;;;;;;10.6;13.5;;;;;;;13.1;77.4;99420;;;;
2022/10/11 07:31:47;;;;;;;10.6;13.5;;;;;;;12.9;76.9;99440;;;;
2022/10/11 07:41:47;;;;;;;19;26.7;;;;;;;13;77.3;99450;;;;
2022/10/11 07:52:47;;;;;;;19;26.7;;;;;;;13;77.1;99460;;;;
2022/10/11 08:02:48;;;;;;;14.1;19.7;;;;;;;13.1;76.3;99470;;;;
2022/10/11 08:13:47;;;;;;;14.1;19.7;;;;;;;13.6;75.9;99470;;;;
2022/10/11 08:24:47;;;;;;;14.1;19.7;;;;;;;13.6;75.9;99470;;;;
2022/10/11 08:35:47;;;;;;;14.9;21.1;;;;;;;13.8;75.6;99480;;;;
2022/10/11 08:45:48;;;;;;;14.9;21.1;;;;;;;13.9;75.8;99480;;;;
2022/10/11 08:55:48;;;;;;;14.9;21.1;;;;;;;14;75.9;99490;;;;
2022/10/11 09:06:48;;;;;;;15.5;20;;;;;;;14.2;76.1;99480;;;;
2022/10/11 09:17:48;;;;;;;15.5;20;;;;;;;14.5;75.7;99490;;;;
2022/10/11 09:27:48;;;;;;;15.5;20;;;;;;;14.7;74.5;99490;;;;
2022/10/11 09:38:48;;;;;;;13.5;24.3;;;;;;;14.7;73.8;99490;;;;
2022/10/11 09:48:47;;;;;;;13.5;24.3;;;;;;;15.1;73.6;99500;;;;
2022/10/11 09:58:47;;;;;;;13.5;24.3;;;;;;;15.7;71.7;99500;;;;
2022/10/11 10:08:49;;;;;;;12.5;18;;;;;;;16.1;70.4;99490;;;;
2022/10/11 10:19:48;;;;;;;12.5;18;;;;;;;16.7;70.9;99490;;;;
2022/10/11 10:30:47;;;;;;;12.5;18;;;;;;;17.2;69.1;99500;;;;
2022/10/11 10:41:48;;;;;;;11.2;19.2;;;;;;;17.2;67.6;99500;;;;
2022/10/11 10:52:48;;;;;;;11.2;19.2;;;;;;;17.5;66.6;99500;;;;
2022/10/11 11:02:48;;;;;;;10.5;14.2;;;;;;;17.7;67.2;99510;;;;
2022/10/11 11:13:48;;;;;;;10.5;14.2;;;;;;;17.3;67.6;99510;;;;
2022/10/11 11:24:48;;;;;;;10.5;14.2;;;;;;;17.6;68.3;99500;;;;
2022/10/11 11:34:48;;;;;;;10.5;15;;;;;;;17.9;67.9;99510;;;;
2022/10/11 11:45:48;;;;;;;10.5;15;;;;;;;18;67.4;99490;;;;
2022/10/11 11:55:48;;;;;;;10.5;15;;;;;;;17.5;68.1;99510;;;;
2022/10/11 12:06:47;;;;;;;10.2;13.3;;;;;;;17.1;70.6;99510;;;;
2022/10/11 12:16:47;;;;;;;10.2;13.3;;;;;;;16.7;70;99520;;;;
2022/10/11 12:26:48;;;;;;;10.2;13.3;;;;;;;17;67.5;99520;;;;
2022/10/11 12:37:48;;;;;;;12.1;17.2;;;;;;;16.5;68.6;99530;;;;
2022/10/11 12:48:48;;;;;;;12.1;17.2;;;;;;;16.4;69.4;99540;;;;
2022/10/11 12:59:48;;;;;;;12.1;17.2;;;;;;;16.2;68.9;99540;;;;
2022/10/11 13:09:48;;;;;;;10.9;15;;;;;;;16.2;69.2;99560;;;;
2022/10/11 13:20:48;;;;;;;10.9;15;;;;;;;15.9;70.2;99570;;;;
2022/10/11 13:31:48;;;;;;;10.9;15;;;;;;;15.7;70.3;99580;;;;
2022/10/11 13:41:48;;;;;;;11;14.5;;;;;;;15.6;71.2;99570;;;;
2022/10/11 13:51:49;;;;;;;11;14.5;;;;;;;15.3;72.1;99570;;;;
2022/10/11 14:02:48;;;;;;;11.4;14;;;;;;;15.2;72.3;99580;;;;
2022/10/11 14:13:48;;;;;;;11.4;14;;;;;;;15.1;72.8;99580;;;;
2022/10/11 14:23:48;;;;;;;11.4;14;;;;;;;15.1;73;99580;;;;
2022/10/11 14:34:48;;;;;;;11.7;15.8;;;;;;;15;72;99580;;;;
2022/10/11 14:45:48;;;;;;;11.7;15.8;;;;;;;15;71.8;99570;;;;
2022/10/11 14:56:48;;;;;;;11.7;15.8;;;;;;;14.8;71.6;99580;;;;
2022/10/11 15:06:48;;;;;;;9.9;13.7;;;;;;;14.5;71.8;99580;;;;
2022/10/11 15:17:48;;;;;;;9.9;13.7;;;;;;;14.2;72.2;99580;;;;
2022/10/11 15:27:48;;;;;;;9.9;13.7;;;;;;;13.9;72.9;99590;;;;
2022/10/11 15:38:48;;;;;;;10.8;14.7;;;;;;;13.4;73.7;99610;;;;
2022/10/11 15:49:48;;;;;;;10.8;14.7;;;;;;;13;74.7;99610;;;;
2022/10/11 15:59:48;;;;;;;10.8;14.7;;;;;;;12.5;74.9;99620;;;;
2022/10/11 16:10:48;;;;;;;12.6;17.4;;;;;;;11.9;75.9;99630;;;;
2022/10/11 16:20:48;;;;;;;12.6;17.4;;;;;;;11.5;77.1;99640;;;;
2022/10/11 16:30:48;;;;;;;12.6;17.4;;;;;;;11.1;78.3;99650;;;;
2022/10/11 16:40:48;;;;;;;12.1;15.3;;;;;;;10.9;79.6;99650;;;;
2022/10/11 16:51:48;;;;;;;12.1;15.3;;;;;;;10.7;80.3;99660;;;;
2022/10/11 17:02:48;;;;;;;14.4;19.8;;;;;;;10.5;81.6;99670;;;;
2022/10/11 17:13:48;;;;;;;14.4;19.8;;;;;;;10.2;81.6;99670;;;;
2022/10/11 17:23:48;;;;;;;14.4;19.8;;;;;;;9.9;81.6;99680;;;;
2022/10/11 17:34:48;;;;;;;12.9;17.7;;;;;;;9.6;81.8;99690;;;;
2022/10/11 17:44:48;;;;;;;12.9;17.7;;;;;;;9.4;82.6;99690;;;;
2022/10/11 17:55:49;;;;;;;12.9;17.7;;;;;;;9.2;83;99690;;;;
2022/10/11 18:05:48;;;;;;;13.3;18.2;;;;;;;9.1;83.4;99700;;;;
2022/10/11 18:15:48;;;;;;;13.3;18.2;;;;;;;8.9;84.2;99710;;;;
2022/10/11 18:25:48;;;;;;;13.3;18.2;;;;;;;8.8;86;99710;;;;
2022/10/11 18:36:48;;;;;;;15.4;20.4;;;;;;;8.7;86.8;99720;;;;
2022/10/11 18:46:49;;;;;;;15.4;20.4;;;;;;;8.7;87;99730;;;;
2022/10/11 18:56:48;;;;;;;15.4;20.4;;;;;;;8.9;87.6;99730;;;;
2022/10/11 19:06:48;;;;;;;20.7;34.9;;;;;;;9.1;87.9;99740;;;;
2022/10/11 19:17:48;;;;;;;20.7;34.9;;;;;;;9.1;88;99730;;;;
2022/10/11 19:28:49;;;;;;;20.7;34.9;;;;;;;8.9;87.7;99730;;;;
2022/10/11 19:39:48;;;;;;;21;26.3;;;;;;;8.8;87.6;99740;;;;
2022/10/11 19:50:48;;;;;;;21;26.3;;;;;;;8.8;87.7;99750;;;;
2022/10/11 20:01:48;;;;;;;22.5;27.9;;;;;;;8.7;87.8;99750;;;;
2022/10/11 20:11:48;;;;;;;22.5;27.9;;;;;;;8.7;87.5;99750;;;;
2022/10/11 20:22:48;;;;;;;22.5;27.9;;;;;;;8.5;87.3;99760;;;;
2022/10/11 20:32:48;;;;;;;22.4;27.5;;;;;;;8.3;86.8;99760;;;;
2022/10/11 20:42:48;;;;;;;22.4;27.5;;;;;;;8.2;87.3;99770;;;;
2022/10/11 20:53:48;;;;;;;22.4;27.5;;;;;;;7.9;87.3;99770;;;;
2022/10/11 21:04:48;;;;;;;20.9;28.4;;;;;;;7.7;87.1;99780;;;;
2022/10/11 21:15:48;;;;;;;20.9;28.4;;;;;;;7.4;86.9;99770;;;;
2022/10/11 21:25:48;;;;;;;20.9;28.4;;;;;;;7.2;87.2;99770;;;;
2022/10/11 21:35:48;;;;;;;22.4;32.1;;;;;;;7;87.9;99780;;;;
2022/10/11 21:46:48;;;;;;;22.4;32.1;;;;;;;6.8;88.2;99780;;;;
2022/10/11 21:57:48;;;;;;;22.4;32.1;;;;;;;6.6;88;99780;;;;
2022/10/11 22:08:48;;;;;;;17;25.2;;;;;;;6.6;88.3;99780;;;;
2022/10/11 22:19:48;;;;;;;17;25.2;;;;;;;6.4;88.2;99770;;;;
2022/10/11 22:30:48;;;;;;;17;25.2;;;;;;;6.1;88;99780;;;;
2022/10/11 22:40:48;;;;;;;19.9;27.6;;;;;;;6.1;88.4;99770;;;;
2022/10/11 22:50:48;;;;;;;19.9;27.6;;;;;;;6.1;88.2;99780;;;;
2022/10/11 23:01:48;;;;;;;19.7;29.5;;;;;;;5.8;87.8;99780;;;;
2022/10/11 23:11:48;;;;;;;19.7;29.5;;;;;;;5.7;87.9;99780;;;;
2022/10/11 23:21:48;;;;;;;19.7;29.5;;;;;;;5.8;88.1;99780;;;;
2022/10/11 23:31:48;;;;;;;17.3;26.4;;;;;;;5.8;88.1;99780;;;;
2022/10/11 23:41:48;;;;;;;17.3;26.4;;;;;;;5.7;88;99790;;;;
2022/10/11 23:52:48;;;;;;;17.3;26.4;;;;;;;5.7;87.9;99790;;;;
